createdAt,value
2023-03-19T00:02:26.640Z,24.00
2023-03-19T00:05:02.554Z,21.90
2023-03-19T00:07:36.463Z,25.10
2023-03-19T00:10:10.875Z,21.60
2023-03-19T00:12:41.529Z,19.10
2023-03-19T00:15:18.809Z,21.50
2023-03-19T00:17:54.748Z,20.80
2023-03-19T00:20:24.779Z,23.90
2023-03-19T00:22:56.130Z,20.20
2023-03-19T00:25:29.241Z,22.70
2023-03-19T00:28:00.863Z,20.30
2023-03-19T00:30:31.685Z,20.10
2023-03-19T00:33:04.366Z,22.90
2023-03-19T00:35:34.149Z,25.40
2023-03-19T00:38:04.356Z,22.00
2023-03-19T00:40:35.596Z,21.00
2023-03-19T00:43:07.372Z,20.90
2023-03-19T00:45:36.974Z,19.50
2023-03-19T00:48:07.651Z,22.80
2023-03-19T00:50:37.463Z,24.20
2023-03-19T00:53:10.185Z,24.30
2023-03-19T00:55:40.832Z,23.40
2023-03-19T00:58:11.639Z,25.90
2023-03-19T01:00:41.508Z,23.70
2023-03-19T01:03:11.210Z,25.40
2023-03-19T01:05:40.781Z,24.40
2023-03-19T01:08:11.310Z,23.30
2023-03-19T01:10:40.950Z,22.80
2023-03-19T01:13:11.109Z,25.60
2023-03-19T01:15:54.910Z,26.00
2023-03-19T01:18:28.801Z,25.60
2023-03-19T01:21:01.313Z,27.30
2023-03-19T01:23:33.179Z,23.50
2023-03-19T01:26:03.345Z,22.50
2023-03-19T01:28:35.639Z,27.90
2023-03-19T01:31:09.608Z,27.50
2023-03-19T01:33:41.438Z,32.40
2023-03-19T01:36:12.040Z,27.10
2023-03-19T01:38:44.435Z,29.50
2023-03-19T01:41:18.451Z,30.40
2023-03-19T01:43:51.899Z,29.20
2023-03-19T01:46:33.245Z,28.20
2023-03-19T01:49:09.376Z,31.00
2023-03-19T01:51:45.521Z,29.40
2023-03-19T01:54:19.062Z,30.10
2023-03-19T01:57:07.417Z,30.70
2023-03-19T01:59:40.550Z,29.40
2023-03-19T02:02:17.329Z,29.50
2023-03-19T02:05:01.128Z,29.30
2023-03-19T02:07:38.404Z,28.90
2023-03-19T02:10:13.636Z,29.90
2023-03-19T02:12:43.478Z,29.00
2023-03-19T02:15:13.344Z,30.90
2023-03-19T02:17:44.871Z,30.60
2023-03-19T02:20:24.923Z,27.70
2023-03-19T02:23:07.093Z,29.40
2023-03-19T02:25:51.940Z,30.10
2023-03-19T02:28:25.016Z,29.60
2023-03-19T02:30:59.423Z,27.50
2023-03-19T02:33:32.362Z,27.90
2023-03-19T02:36:15.111Z,29.00
2023-03-19T02:38:46.794Z,31.30
2023-03-19T02:41:16.681Z,28.60
2023-03-19T02:43:50.659Z,31.90
2023-03-19T02:46:21.020Z,31.00
2023-03-19T02:48:52.032Z,33.50
2023-03-19T02:51:23.832Z,30.50
2023-03-19T02:53:55.125Z,31.00
2023-03-19T02:56:25.778Z,31.00
2023-03-19T02:58:57.409Z,30.40
2023-03-19T03:01:29.356Z,28.30
2023-03-19T03:04:00.994Z,29.50
2023-03-19T03:06:30.598Z,32.80
2023-03-19T03:09:04.744Z,32.70
2023-03-19T03:11:37.030Z,29.80
2023-03-19T03:14:11.394Z,32.70
2023-03-19T03:16:41.650Z,30.30
2023-03-19T03:19:16.795Z,30.10
2023-03-19T03:21:46.614Z,30.70
2023-03-19T03:24:18.368Z,29.90
2023-03-19T03:26:48.704Z,33.00
2023-03-19T03:29:17.855Z,29.90
2023-03-19T03:34:20.732Z,31.10
2023-03-19T03:36:53.868Z,30.80
2023-03-19T03:39:39.108Z,32.50
2023-03-19T03:42:13.970Z,32.90
2023-03-19T03:44:45.557Z,29.30
2023-03-19T03:47:32.562Z,33.10
2023-03-19T03:50:04.027Z,32.40
2023-03-19T03:52:34.264Z,32.00
2023-03-19T03:55:11.501Z,31.40
2023-03-19T03:57:48.648Z,30.30
2023-03-19T04:00:19.340Z,31.40
2023-03-19T04:02:52.247Z,33.20
2023-03-19T04:05:23.751Z,33.50
2023-03-19T04:07:59.273Z,32.50
2023-03-19T04:10:30.719Z,30.80
2023-03-19T04:13:04.990Z,31.00
2023-03-19T04:15:34.692Z,32.70
2023-03-19T04:18:04.087Z,37.60
2023-03-19T04:20:33.874Z,32.40
2023-03-19T04:23:04.682Z,32.70
2023-03-19T04:25:43.594Z,33.00
2023-03-19T04:28:15.431Z,33.00
2023-03-19T04:30:44.862Z,34.40
2023-03-19T04:33:22.852Z,35.90
2023-03-19T04:35:52.436Z,32.70
2023-03-19T04:38:22.449Z,33.30
2023-03-19T04:40:51.947Z,31.40
2023-03-19T04:43:21.746Z,35.30
2023-03-19T04:45:51.662Z,30.80
2023-03-19T04:48:20.776Z,31.90
2023-03-19T04:50:52.750Z,30.70
2023-03-19T04:53:21.720Z,32.70
2023-03-19T04:55:59.451Z,32.60
2023-03-19T04:58:30.527Z,32.50
2023-03-19T05:01:01.747Z,31.80
2023-03-19T05:03:32.357Z,29.80
2023-03-19T05:06:01.934Z,28.10
2023-03-19T05:08:31.495Z,28.60
2023-03-19T05:11:01.384Z,29.00
2023-03-19T05:13:32.550Z,29.00
2023-03-19T05:16:03.229Z,28.80
2023-03-19T05:18:34.938Z,28.30
2023-03-19T05:21:19.468Z,29.30
2023-03-19T05:23:51.823Z,29.20
2023-03-19T05:26:23.212Z,32.00
2023-03-19T05:28:52.823Z,28.50
2023-03-19T05:31:22.998Z,32.40
2023-03-19T05:33:52.191Z,36.50
2023-03-19T05:36:23.798Z,34.50
2023-03-19T05:38:53.072Z,34.20
2023-03-19T05:43:50.836Z,33.40
2023-03-19T05:46:19.998Z,38.10
2023-03-19T05:51:17.778Z,33.10
2023-03-19T05:53:47.420Z,32.90
2023-03-19T05:56:16.341Z,32.40
2023-03-19T06:01:15.631Z,34.10
2023-03-19T06:03:47.182Z,31.10
2023-03-19T06:06:17.260Z,31.70
2023-03-19T06:08:48.379Z,29.00
2023-03-19T06:11:17.947Z,32.70
2023-03-19T06:13:47.792Z,30.50
2023-03-19T06:16:16.953Z,30.90
2023-03-19T06:18:46.705Z,29.50
2023-03-19T06:21:17.339Z,30.10
2023-03-19T06:23:47.157Z,31.30
2023-03-19T06:26:16.741Z,33.00
2023-03-19T06:28:46.318Z,32.80
2023-03-19T06:31:15.517Z,34.80
2023-03-19T06:33:45.334Z,32.30
2023-03-19T06:36:15.180Z,33.80
2023-03-19T06:38:45.536Z,31.30
2023-03-19T06:41:15.897Z,31.50
2023-03-19T06:43:44.922Z,35.80
2023-03-19T06:46:14.931Z,30.10
2023-03-19T06:48:45.199Z,37.20
2023-03-19T06:51:15.311Z,33.10
2023-03-19T06:53:44.992Z,33.20
2023-03-19T06:56:15.447Z,35.70
2023-03-19T06:58:45.889Z,33.80
2023-03-19T07:01:24.177Z,34.50
2023-03-19T07:03:53.651Z,34.30
2023-03-19T07:06:22.860Z,35.10
2023-03-19T07:08:52.093Z,36.40
2023-03-19T07:11:21.812Z,36.60
2023-03-19T07:13:53.466Z,38.70
2023-03-19T07:16:23.229Z,38.90
2023-03-19T07:18:54.402Z,38.50
2023-03-19T07:21:29.369Z,38.10
2023-03-19T07:23:59.829Z,39.60
2023-03-19T07:26:30.050Z,34.60
2023-03-19T07:29:04.262Z,35.60
2023-03-19T07:31:34.161Z,36.90
2023-03-19T07:34:03.627Z,33.10
2023-03-19T07:36:32.854Z,35.00
2023-03-19T07:39:03.916Z,32.70
2023-03-19T07:41:35.081Z,30.60
2023-03-19T07:44:04.239Z,30.80
2023-03-19T07:46:33.506Z,31.80
2023-03-19T07:49:04.947Z,31.30
2023-03-19T07:51:34.072Z,31.30
2023-03-19T07:56:31.769Z,33.70
2023-03-19T07:59:01.307Z,30.90
2023-03-19T08:01:30.555Z,31.30
2023-03-19T08:03:59.741Z,32.50
2023-03-19T08:06:29.257Z,31.30
2023-03-19T08:08:58.724Z,29.00
2023-03-19T08:11:29.749Z,31.30
2023-03-19T08:13:59.705Z,31.30
2023-03-19T08:16:43.422Z,29.00
2023-03-19T08:19:13.883Z,30.10
2023-03-19T08:21:43.943Z,28.60
2023-03-19T08:24:14.009Z,29.60
2023-03-19T08:26:44.366Z,30.40
2023-03-19T08:29:18.938Z,28.70
2023-03-19T08:31:49.253Z,26.20
2023-03-19T08:34:19.761Z,29.90
2023-03-19T08:36:49.435Z,28.60
2023-03-19T08:39:20.417Z,28.10
2023-03-19T08:41:49.477Z,30.30
2023-03-19T08:44:18.496Z,31.80
2023-03-19T08:49:20.476Z,32.40
2023-03-19T08:51:50.368Z,33.00
2023-03-19T08:54:22.899Z,27.40
2023-03-19T08:56:53.222Z,28.90
2023-03-19T08:59:22.439Z,28.10
2023-03-19T09:01:55.886Z,26.90
2023-03-19T09:04:24.933Z,27.00
2023-03-19T09:06:56.798Z,27.60
2023-03-19T09:09:28.849Z,26.70
2023-03-19T09:12:00.245Z,27.80
2023-03-19T09:14:30.257Z,28.30
2023-03-19T09:17:01.838Z,26.40
2023-03-19T09:19:31.810Z,26.80
2023-03-19T09:22:01.224Z,24.30
2023-03-19T09:24:31.109Z,25.80
2023-03-19T09:27:00.054Z,26.70
2023-03-19T09:31:57.162Z,26.70
2023-03-19T09:34:26.320Z,28.70
2023-03-19T09:39:29.498Z,28.20
2023-03-19T09:42:15.937Z,29.50
2023-03-19T09:44:46.668Z,30.90
2023-03-19T09:47:28.287Z,29.80
2023-03-19T09:50:01.183Z,31.30
2023-03-19T09:52:46.640Z,28.20
2023-03-19T09:55:33.033Z,30.70
2023-03-19T09:58:10.880Z,28.20
2023-03-19T10:00:46.605Z,28.60
2023-03-19T10:03:31.574Z,29.20
2023-03-19T10:06:19.458Z,26.60
2023-03-19T10:09:12.116Z,27.40
2023-03-19T10:12:02.475Z,26.80
2023-03-19T10:14:47.879Z,26.50
2023-03-19T10:17:25.151Z,28.70
2023-03-19T10:20:00.900Z,27.10
2023-03-19T10:22:38.644Z,24.30
2023-03-19T10:25:15.417Z,25.40
2023-03-19T10:27:48.761Z,25.30
2023-03-19T10:30:20.996Z,26.10
2023-03-19T10:33:01.725Z,23.00
2023-03-19T10:35:46.496Z,23.30
2023-03-19T10:38:41.627Z,25.60
2023-03-19T10:41:28.548Z,25.50
2023-03-19T10:44:04.205Z,24.80
2023-03-19T10:46:46.621Z,22.80
2023-03-19T10:49:51.543Z,22.90
2023-03-19T10:52:25.281Z,21.00
2023-03-19T10:54:57.639Z,19.70
2023-03-19T10:57:31.107Z,19.20
2023-03-19T11:00:10.450Z,20.40
2023-03-19T11:02:49.852Z,18.60
2023-03-19T11:05:29.878Z,19.90
2023-03-19T11:08:05.591Z,21.10
2023-03-19T11:10:37.065Z,23.30
2023-03-19T11:13:26.346Z,21.90
2023-03-19T11:16:00.765Z,21.90
2023-03-19T11:18:39.857Z,23.30
2023-03-19T11:21:23.616Z,19.70
2023-03-19T11:24:01.633Z,17.70
2023-03-19T11:26:32.342Z,20.10
2023-03-19T11:29:09.296Z,17.90
2023-03-19T11:31:48.224Z,19.50
2023-03-19T11:34:40.810Z,19.60
2023-03-19T11:37:29.065Z,21.20
2023-03-19T11:40:15.534Z,17.20
2023-03-19T11:45:33.048Z,15.90
2023-03-19T11:48:17.795Z,15.20
2023-03-19T11:50:55.326Z,15.40
2023-03-19T11:53:32.374Z,14.50
2023-03-19T11:56:19.660Z,13.90
2023-03-19T11:59:28.825Z,16.40
2023-03-19T12:02:50.984Z,15.00
2023-03-19T12:05:26.065Z,16.80
2023-03-19T12:08:12.715Z,13.20
2023-03-19T12:11:05.023Z,13.90
2023-03-19T12:13:52.093Z,13.10
2023-03-19T12:16:37.068Z,13.10
2023-03-19T12:19:25.393Z,16.00
2023-03-19T12:22:20.237Z,14.90
2023-03-19T12:25:11.116Z,12.30
2023-03-19T12:27:48.231Z,13.50
2023-03-19T12:30:27.385Z,14.70
2023-03-19T12:33:17.450Z,15.20
2023-03-19T12:35:51.864Z,13.50
2023-03-19T12:38:28.058Z,13.90
2023-03-19T12:41:32.163Z,12.40
2023-03-19T12:44:22.567Z,13.80
2023-03-19T12:47:06.840Z,12.60
2023-03-19T12:49:42.798Z,11.60
2023-03-19T12:52:23.210Z,12.00
2023-03-19T12:55:07.013Z,13.30
2023-03-19T12:57:44.251Z,11.50
2023-03-19T13:00:32.911Z,14.60
2023-03-19T13:03:13.454Z,11.40
2023-03-19T13:05:48.311Z,13.60
2023-03-19T13:08:27.479Z,11.60
2023-03-19T13:11:00.127Z,12.30
2023-03-19T13:13:41.165Z,13.10
2023-03-19T13:16:34.108Z,10.10
2023-03-19T13:19:21.190Z,12.90
2023-03-19T13:21:57.699Z,11.80
2023-03-19T13:24:34.046Z,12.00
2023-03-19T13:27:04.055Z,11.00
2023-03-19T13:29:36.238Z,11.40
2023-03-19T13:32:12.182Z,11.80
2023-03-19T13:34:42.841Z,12.50
2023-03-19T13:37:18.842Z,10.10
2023-03-19T13:39:49.856Z,9.90
2023-03-19T13:42:42.654Z,10.70
2023-03-19T13:45:31.137Z,11.90
2023-03-19T13:48:36.717Z,11.20
2023-03-19T13:51:25.945Z,12.00
2023-03-19T13:54:06.856Z,9.20
2023-03-19T13:57:05.335Z,9.10
2023-03-19T14:02:49.838Z,8.50
2023-03-19T14:05:29.435Z,9.40
2023-03-19T14:08:02.881Z,11.30
2023-03-19T14:10:46.575Z,12.40
2023-03-19T14:13:35.038Z,9.90
2023-03-19T14:18:45.220Z,11.80
2023-03-19T14:21:21.820Z,8.80
2023-03-19T14:24:03.522Z,9.00
2023-03-19T14:26:36.687Z,9.60
2023-03-19T14:29:07.874Z,10.30
2023-03-19T14:31:44.251Z,8.60
2023-03-19T14:34:22.445Z,10.10
2023-03-19T14:36:59.117Z,10.80
2023-03-19T14:39:30.869Z,9.40
2023-03-19T14:42:08.732Z,10.60
2023-03-19T14:45:15.162Z,9.80
2023-03-19T14:48:07.793Z,9.20
2023-03-19T14:50:56.507Z,10.10
2023-03-19T14:53:35.712Z,8.30
2023-03-19T14:56:14.619Z,8.90
2023-03-19T14:58:55.746Z,10.10
2023-03-19T15:01:27.359Z,9.70
2023-03-19T15:04:01.814Z,9.40
2023-03-19T15:06:35.631Z,9.80
2023-03-19T15:09:10.831Z,10.70
2023-03-19T15:12:00.690Z,9.30
2023-03-19T15:14:45.467Z,8.90
2023-03-19T15:17:23.012Z,13.40
2023-03-19T15:19:54.817Z,11.90
2023-03-19T15:22:42.120Z,9.60
2023-03-19T15:25:13.868Z,9.30
2023-03-19T15:27:43.747Z,8.90
2023-03-19T15:30:28.855Z,10.00
2023-03-19T15:33:12.099Z,10.40
2023-03-19T15:35:47.566Z,9.80
2023-03-19T15:38:34.344Z,9.80
2023-03-19T15:41:11.425Z,9.70
2023-03-19T15:43:42.981Z,12.40
2023-03-19T15:46:22.518Z,9.30
2023-03-19T15:49:03.005Z,11.40
2023-03-19T15:51:54.111Z,10.90
2023-03-19T15:54:27.295Z,10.00
2023-03-19T15:56:58.096Z,8.00
2023-03-19T15:59:41.439Z,10.40
2023-03-19T16:02:30.024Z,12.30
2023-03-19T16:05:20.907Z,16.70
2023-03-19T16:07:57.163Z,11.80
2023-03-19T16:10:41.962Z,11.30
2023-03-19T16:13:38.415Z,9.90
2023-03-19T16:16:15.292Z,9.70
2023-03-19T16:18:53.315Z,9.10
2023-03-19T16:21:28.143Z,9.90
2023-03-19T16:24:01.896Z,12.20
2023-03-19T16:26:40.140Z,11.50
2023-03-19T16:29:22.942Z,10.20
2023-03-19T16:31:59.245Z,11.60
2023-03-19T16:34:38.212Z,10.10
2023-03-19T16:37:33.814Z,12.30
2023-03-19T16:40:26.038Z,15.50
2023-03-19T16:43:05.795Z,13.20
2023-03-19T16:45:35.927Z,14.40
2023-03-19T16:48:05.828Z,14.60
2023-03-19T16:50:37.658Z,17.00
2023-03-19T16:53:18.476Z,17.20
2023-03-19T16:55:49.314Z,16.60
2023-03-19T16:58:24.072Z,18.90
2023-03-19T17:00:54.659Z,17.40
2023-03-19T17:03:25.605Z,19.10
2023-03-19T17:05:59.042Z,18.50
2023-03-19T17:08:33.981Z,17.30
2023-03-19T17:11:03.939Z,21.70
2023-03-19T17:13:36.934Z,17.00
2023-03-19T17:16:08.759Z,22.60
2023-03-19T17:18:43.131Z,21.40
2023-03-19T17:21:16.211Z,19.20
2023-03-19T17:23:49.057Z,20.20
2023-03-19T17:26:23.197Z,20.20
2023-03-19T17:28:54.758Z,21.30
2023-03-19T17:31:28.743Z,18.10
2023-03-19T17:34:02.500Z,19.70
2023-03-19T17:36:32.938Z,19.80
2023-03-19T17:39:05.675Z,19.80
2023-03-19T17:41:35.689Z,19.20
2023-03-19T17:44:06.882Z,19.90
2023-03-19T17:46:39.666Z,19.60
2023-03-19T17:49:20.300Z,19.00
2023-03-19T17:51:53.716Z,18.30
2023-03-19T17:54:28.107Z,18.80
2023-03-19T17:57:00.264Z,21.40
2023-03-19T17:59:29.746Z,18.00
2023-03-19T18:02:01.195Z,22.00
2023-03-19T18:04:32.681Z,28.90
2023-03-19T18:07:02.429Z,22.90
2023-03-19T18:09:34.536Z,23.00
2023-03-19T18:12:05.318Z,22.90
2023-03-19T18:14:40.616Z,23.30
2023-03-19T18:17:31.845Z,23.50
2023-03-19T18:20:01.448Z,21.90
2023-03-19T18:22:33.449Z,25.90
2023-03-19T18:25:02.929Z,23.20
2023-03-19T18:27:54.393Z,23.50
2023-03-19T18:30:49.452Z,22.40
2023-03-19T18:33:27.353Z,22.90
2023-03-19T18:36:12.111Z,23.10
2023-03-19T18:38:59.709Z,24.70
2023-03-19T18:41:37.543Z,22.00
2023-03-19T18:44:10.486Z,24.30
2023-03-19T18:46:42.339Z,24.70
2023-03-19T18:49:23.582Z,24.00
2023-03-19T18:52:02.996Z,26.90
2023-03-19T18:54:58.689Z,25.70
2023-03-19T18:57:31.413Z,24.20
2023-03-19T19:00:14.022Z,25.60
2023-03-19T19:02:46.131Z,23.50
2023-03-19T19:05:19.235Z,23.30
2023-03-19T19:07:52.844Z,24.80
2023-03-19T19:10:23.438Z,23.10
2023-03-19T19:12:57.849Z,23.20
2023-03-19T19:15:30.841Z,28.70
2023-03-19T19:18:00.899Z,27.00
2023-03-19T19:20:31.042Z,25.40
2023-03-19T19:23:00.879Z,24.90
2023-03-19T19:25:33.800Z,26.10
2023-03-19T19:28:05.999Z,30.10
2023-03-19T19:30:36.492Z,26.10
2023-03-19T19:33:11.320Z,27.50
2023-03-19T19:35:41.285Z,28.90
2023-03-19T19:38:11.090Z,27.80
2023-03-19T19:40:42.515Z,27.30
2023-03-19T19:43:18.776Z,28.90
2023-03-19T19:45:50.995Z,26.80
2023-03-19T19:48:27.344Z,25.30
2023-03-19T19:51:01.637Z,28.00
2023-03-19T19:53:31.837Z,25.40
2023-03-19T19:56:12.544Z,26.60
2023-03-19T19:58:47.666Z,25.50
2023-03-19T20:01:25.060Z,27.30
2023-03-19T20:06:28.217Z,25.90
2023-03-19T20:08:58.659Z,27.70
2023-03-19T20:11:54.027Z,24.80
2023-03-19T20:14:51.471Z,23.30
2023-03-19T20:17:29.338Z,30.00
2023-03-19T20:20:21.308Z,28.30
2023-03-19T20:22:55.903Z,29.70
2023-03-19T20:25:33.793Z,27.50
2023-03-19T20:28:09.119Z,26.00
2023-03-19T20:30:41.604Z,23.10
2023-03-19T20:33:12.869Z,23.80
2023-03-19T20:35:43.629Z,25.50
2023-03-19T20:38:16.815Z,25.20
2023-03-19T21:03:53.458Z,30.00
2023-03-19T21:06:25.018Z,34.40
2023-03-19T21:09:01.350Z,36.00
2023-03-19T21:11:44.233Z,32.60
2023-03-19T21:14:16.130Z,34.60
2023-03-19T21:16:45.314Z,34.90
2023-03-19T21:19:16.050Z,37.10
2023-03-19T21:21:48.156Z,37.90
2023-03-19T21:24:20.628Z,40.70
2023-03-19T21:26:50.674Z,41.90
2023-03-19T21:29:27.514Z,41.00
2023-03-19T21:31:58.705Z,37.10
2023-03-19T21:34:33.113Z,42.20
2023-03-19T21:37:04.305Z,50.10
2023-03-19T21:39:34.494Z,45.10
2023-03-19T21:42:09.646Z,52.40
2023-03-19T21:45:02.705Z,41.20
2023-03-19T21:48:42.919Z,44.10
2023-03-19T21:51:36.329Z,53.00
2023-03-19T21:54:09.250Z,54.60
2023-03-19T21:57:06.653Z,58.40
2023-03-19T21:59:52.765Z,64.00
2023-03-19T22:02:44.416Z,65.70
2023-03-19T22:05:30.372Z,64.70
2023-03-19T22:07:59.898Z,62.10
2023-03-19T22:10:30.433Z,56.80
2023-03-19T22:13:00.300Z,54.00
2023-03-19T22:15:38.051Z,57.20
2023-03-19T22:18:13.691Z,56.30
2023-03-19T22:20:43.894Z,58.20
2023-03-19T22:23:16.167Z,63.60
2023-03-19T22:25:48.920Z,66.10
2023-03-19T22:28:30.872Z,68.60
2023-03-19T22:31:03.194Z,65.40
2023-03-19T22:33:35.245Z,54.80
2023-03-19T22:36:06.009Z,65.30
2023-03-19T22:38:36.513Z,63.10
2023-03-19T22:41:15.712Z,63.50
2023-03-19T22:46:18.500Z,60.00
2023-03-19T22:48:50.062Z,57.40
2023-03-19T22:51:22.245Z,59.00
2023-03-19T22:53:53.314Z,54.30
2023-03-19T22:56:23.628Z,56.40
2023-03-19T22:58:56.038Z,62.10
2023-03-19T23:01:35.894Z,55.70
2023-03-19T23:04:21.981Z,55.80
2023-03-19T23:06:58.871Z,56.20
2023-03-19T23:09:37.080Z,56.70
2023-03-19T23:14:40.746Z,57.40
2023-03-19T23:17:21.010Z,51.50
2023-03-19T23:19:51.638Z,56.00
2023-03-19T23:22:23.394Z,58.40
2023-03-19T23:24:54.385Z,62.00
2023-03-19T23:27:28.358Z,51.70
2023-03-19T23:29:58.784Z,53.30
2023-03-19T23:32:28.708Z,51.70
2023-03-19T23:35:01.595Z,50.10
2023-03-19T23:37:32.508Z,58.60
2023-03-19T23:40:03.984Z,53.80
2023-03-19T23:42:34.060Z,45.70
2023-03-19T23:45:10.904Z,50.50
2023-03-19T23:47:41.684Z,53.10
2023-03-19T23:50:13.051Z,50.90
2023-03-19T23:52:43.158Z,46.30
2023-03-19T23:55:13.481Z,47.30
2023-03-19T23:57:43.558Z,49.70
